sensor_id;sensor_type;location;lat;lon;timestamp;P1;durP1;ratioP1;P2;durP2;ratioP2
53879;SDS011;39791;53.184;5.486;2023-01-29T00:02:04;20.02;;;13.65;;
53879;SDS011;39791;53.184;5.486;2023-01-29T00:04:29;18.52;;;13.18;;
53879;SDS011;39791;53.184;5.486;2023-01-29T00:06:56;20.90;;;14.25;;
53879;SDS011;39791;53.184;5.486;2023-01-29T00:09:21;24.33;;;14.85;;
53879;SDS011;39791;53.184;5.486;2023-01-29T00:11:47;22.27;;;14.95;;
53879;SDS011;39791;53.184;5.486;2023-01-29T00:14:12;19.27;;;14.13;;
53879;SDS011;39791;53.184;5.486;2023-01-29T00:16:38;21.52;;;14.75;;
53879;SDS011;39791;53.184;5.486;2023-01-29T00:19:04;18.02;;;15.05;;
53879;SDS011;39791;53.184;5.486;2023-01-29T00:21:30;20.75;;;13.75;;
53879;SDS011;39791;53.184;5.486;2023-01-29T00:23:56;20.52;;;14.45;;
53879;SDS011;39791;53.184;5.486;2023-01-29T00:26:22;18.10;;;14.45;;
53879;SDS011;39791;53.184;5.486;2023-01-29T00:28:48;22.40;;;13.93;;
53879;SDS011;39791;53.184;5.486;2023-01-29T00:31:14;19.60;;;13.77;;
53879;SDS011;39791;53.184;5.486;2023-01-29T00:33:41;18.70;;;13.38;;
53879;SDS011;39791;53.184;5.486;2023-01-29T00:36:08;16.48;;;13.15;;
53879;SDS011;39791;53.184;5.486;2023-01-29T00:38:36;17.92;;;13.43;;
53879;SDS011;39791;53.184;5.486;2023-01-29T00:41:12;17.00;;;13.00;;
53879;SDS011;39791;53.184;5.486;2023-01-29T00:43:57;17.08;;;12.50;;
53879;SDS011;39791;53.184;5.486;2023-01-29T00:46:43;12.43;;;10.00;;
53879;SDS011;39791;53.184;5.486;2023-01-29T00:49:08;15.93;;;11.55;;
53879;SDS011;39791;53.184;5.486;2023-01-29T00:51:35;14.60;;;9.95;;
53879;SDS011;39791;53.184;5.486;2023-01-29T00:54:02;13.60;;;10.27;;
53879;SDS011;39791;53.184;5.486;2023-01-29T00:56:29;17.42;;;10.55;;
53879;SDS011;39791;53.184;5.486;2023-01-29T00:58:55;14.45;;;9.10;;
53879;SDS011;39791;53.184;5.486;2023-01-29T01:01:21;10.88;;;9.57;;
53879;SDS011;39791;53.184;5.486;2023-01-29T01:04:06;11.48;;;9.80;;
53879;SDS011;39791;53.184;5.486;2023-01-29T01:06:35;15.52;;;9.98;;
53879;SDS011;39791;53.184;5.486;2023-01-29T01:09:01;13.75;;;9.73;;
53879;SDS011;39791;53.184;5.486;2023-01-29T01:11:45;15.77;;;8.50;;
53879;SDS011;39791;53.184;5.486;2023-01-29T01:14:11;15.13;;;8.65;;
53879;SDS011;39791;53.184;5.486;2023-01-29T01:16:36;9.50;;;8.35;;
53879;SDS011;39791;53.184;5.486;2023-01-29T01:19:02;10.70;;;7.90;;
53879;SDS011;39791;53.184;5.486;2023-01-29T01:21:28;10.70;;;8.75;;
53879;SDS011;39791;53.184;5.486;2023-01-29T01:23:53;12.52;;;9.15;;
53879;SDS011;39791;53.184;5.486;2023-01-29T01:26:19;15.10;;;9.85;;
53879;SDS011;39791;53.184;5.486;2023-01-29T01:28:44;13.60;;;9.43;;
53879;SDS011;39791;53.184;5.486;2023-01-29T01:31:10;11.75;;;8.65;;
53879;SDS011;39791;53.184;5.486;2023-01-29T01:33:37;10.45;;;9.20;;
53879;SDS011;39791;53.184;5.486;2023-01-29T01:36:05;15.68;;;9.73;;
53879;SDS011;39791;53.184;5.486;2023-01-29T01:38:36;12.32;;;8.75;;
53879;SDS011;39791;53.184;5.486;2023-01-29T01:41:08;11.48;;;9.02;;
53879;SDS011;39791;53.184;5.486;2023-01-29T01:46:15;11.85;;;9.23;;
53879;SDS011;39791;53.184;5.486;2023-01-29T01:48:40;11.10;;;9.13;;
53879;SDS011;39791;53.184;5.486;2023-01-29T01:51:07;12.27;;;9.85;;
53879;SDS011;39791;53.184;5.486;2023-01-29T01:53:35;13.38;;;9.27;;
53879;SDS011;39791;53.184;5.486;2023-01-29T01:56:05;12.48;;;9.20;;
53879;SDS011;39791;53.184;5.486;2023-01-29T01:58:55;11.38;;;9.40;;
53879;SDS011;39791;53.184;5.486;2023-01-29T02:01:23;11.20;;;9.30;;
53879;SDS011;39791;53.184;5.486;2023-01-29T02:03:56;11.18;;;9.77;;
53879;SDS011;39791;53.184;5.486;2023-01-29T02:06:49;12.52;;;9.95;;
53879;SDS011;39791;53.184;5.486;2023-01-29T02:09:38;14.95;;;9.57;;
53879;SDS011;39791;53.184;5.486;2023-01-29T02:12:10;18.10;;;9.55;;
53879;SDS011;39791;53.184;5.486;2023-01-29T02:14:38;13.77;;;9.77;;
53879;SDS011;39791;53.184;5.486;2023-01-29T02:17:05;10.90;;;9.70;;
53879;SDS011;39791;53.184;5.486;2023-01-29T02:19:38;12.05;;;9.65;;
53879;SDS011;39791;53.184;5.486;2023-01-29T02:22:18;13.00;;;9.65;;
53879;SDS011;39791;53.184;5.486;2023-01-29T02:30:49;15.57;;;10.57;;
53879;SDS011;39791;53.184;5.486;2023-01-29T02:36:27;11.55;;;9.77;;
53879;SDS011;39791;53.184;5.486;2023-01-29T02:39:12;13.02;;;9.70;;
53879;SDS011;39791;53.184;5.486;2023-01-29T02:41:43;13.45;;;10.57;;
53879;SDS011;39791;53.184;5.486;2023-01-29T02:44:59;14.45;;;10.20;;
53879;SDS011;39791;53.184;5.486;2023-01-29T02:52:40;14.85;;;10.02;;
53879;SDS011;39791;53.184;5.486;2023-01-29T02:55:18;17.83;;;9.10;;
53879;SDS011;39791;53.184;5.486;2023-01-29T02:57:48;14.38;;;9.73;;
53879;SDS011;39791;53.184;5.486;2023-01-29T03:00:19;17.08;;;9.05;;
53879;SDS011;39791;53.184;5.486;2023-01-29T03:02:54;11.50;;;7.85;;
53879;SDS011;39791;53.184;5.486;2023-01-29T03:05:27;15.63;;;8.15;;
53879;SDS011;39791;53.184;5.486;2023-01-29T03:08:00;13.68;;;8.75;;
53879;SDS011;39791;53.184;5.486;2023-01-29T03:10:35;14.98;;;9.20;;
53879;SDS011;39791;53.184;5.486;2023-01-29T03:15:42;10.35;;;8.30;;
53879;SDS011;39791;53.184;5.486;2023-01-29T03:18:20;13.65;;;9.80;;
53879;SDS011;39791;53.184;5.486;2023-01-29T03:20:53;11.65;;;9.43;;
53879;SDS011;39791;53.184;5.486;2023-01-29T03:23:26;18.45;;;11.30;;
53879;SDS011;39791;53.184;5.486;2023-01-29T03:26:14;16.83;;;12.13;;
53879;SDS011;39791;53.184;5.486;2023-01-29T03:29:01;14.63;;;11.88;;
53879;SDS011;39791;53.184;5.486;2023-01-29T03:31:47;14.75;;;11.50;;
53879;SDS011;39791;53.184;5.486;2023-01-29T03:34:35;14.57;;;12.18;;
53879;SDS011;39791;53.184;5.486;2023-01-29T03:37:10;18.10;;;11.82;;
53879;SDS011;39791;53.184;5.486;2023-01-29T03:39:44;12.35;;;11.00;;
53879;SDS011;39791;53.184;5.486;2023-01-29T03:52:55;14.27;;;10.88;;
53879;SDS011;39791;53.184;5.486;2023-01-29T03:55:44;13.52;;;11.07;;
53879;SDS011;39791;53.184;5.486;2023-01-29T04:01:08;12.50;;;10.20;;
53879;SDS011;39791;53.184;5.486;2023-01-29T04:03:51;17.63;;;11.20;;
53879;SDS011;39791;53.184;5.486;2023-01-29T04:06:29;13.30;;;10.80;;
53879;SDS011;39791;53.184;5.486;2023-01-29T04:11:28;14.52;;;11.30;;
53879;SDS011;39791;53.184;5.486;2023-01-29T04:13:55;14.05;;;12.05;;
53879;SDS011;39791;53.184;5.486;2023-01-29T04:16:23;17.27;;;10.82;;
53879;SDS011;39791;53.184;5.486;2023-01-29T04:18:57;17.58;;;12.15;;
53879;SDS011;39791;53.184;5.486;2023-01-29T04:21:23;13.35;;;11.95;;
53879;SDS011;39791;53.184;5.486;2023-01-29T04:23:49;13.32;;;11.23;;
53879;SDS011;39791;53.184;5.486;2023-01-29T04:34:24;13.05;;;11.63;;
53879;SDS011;39791;53.184;5.486;2023-01-29T04:37:15;14.15;;;11.32;;
53879;SDS011;39791;53.184;5.486;2023-01-29T04:40:02;13.27;;;10.73;;
53879;SDS011;39791;53.184;5.486;2023-01-29T04:43:04;20.13;;;12.75;;
53879;SDS011;39791;53.184;5.486;2023-01-29T04:45:54;14.93;;;12.98;;
53879;SDS011;39791;53.184;5.486;2023-01-29T04:48:25;16.90;;;14.07;;
53879;SDS011;39791;53.184;5.486;2023-01-29T04:51:12;20.83;;;15.23;;
53879;SDS011;39791;53.184;5.486;2023-01-29T04:54:11;19.48;;;15.52;;
53879;SDS011;39791;53.184;5.486;2023-01-29T04:56:47;17.42;;;15.27;;
53879;SDS011;39791;53.184;5.486;2023-01-29T04:59:16;17.15;;;15.35;;
53879;SDS011;39791;53.184;5.486;2023-01-29T05:01:48;18.25;;;14.68;;
53879;SDS011;39791;53.184;5.486;2023-01-29T05:04:15;18.17;;;14.63;;
53879;SDS011;39791;53.184;5.486;2023-01-29T05:06:44;18.63;;;13.68;;
53879;SDS011;39791;53.184;5.486;2023-01-29T05:09:13;19.27;;;13.95;;
53879;SDS011;39791;53.184;5.486;2023-01-29T05:11:40;20.25;;;15.45;;
53879;SDS011;39791;53.184;5.486;2023-01-29T05:14:07;19.15;;;14.68;;
53879;SDS011;39791;53.184;5.486;2023-01-29T05:16:39;19.55;;;14.90;;
53879;SDS011;39791;53.184;5.486;2023-01-29T05:19:12;18.95;;;15.05;;
53879;SDS011;39791;53.184;5.486;2023-01-29T05:21:40;23.73;;;14.82;;
53879;SDS011;39791;53.184;5.486;2023-01-29T05:24:13;18.75;;;14.77;;
53879;SDS011;39791;53.184;5.486;2023-01-29T05:26:41;19.02;;;14.73;;
53879;SDS011;39791;53.184;5.486;2023-01-29T05:29:26;19.58;;;15.32;;
53879;SDS011;39791;53.184;5.486;2023-01-29T05:31:52;20.85;;;17.63;;
53879;SDS011;39791;53.184;5.486;2023-01-29T05:34:17;19.55;;;17.23;;
53879;SDS011;39791;53.184;5.486;2023-01-29T05:36:43;24.25;;;19.02;;
53879;SDS011;39791;53.184;5.486;2023-01-29T05:39:09;31.40;;;19.80;;
53879;SDS011;39791;53.184;5.486;2023-01-29T05:41:34;30.20;;;20.83;;
53879;SDS011;39791;53.184;5.486;2023-01-29T05:44:00;24.52;;;20.02;;
53879;SDS011;39791;53.184;5.486;2023-01-29T05:46:25;22.83;;;18.17;;
53879;SDS011;39791;53.184;5.486;2023-01-29T05:48:51;30.42;;;19.80;;
53879;SDS011;39791;53.184;5.486;2023-01-29T05:51:17;27.98;;;19.52;;
53879;SDS011;39791;53.184;5.486;2023-01-29T05:53:42;23.02;;;18.85;;
53879;SDS011;39791;53.184;5.486;2023-01-29T05:56:08;28.27;;;21.02;;
53879;SDS011;39791;53.184;5.486;2023-01-29T05:58:34;26.88;;;21.58;;
53879;SDS011;39791;53.184;5.486;2023-01-29T06:01:07;29.50;;;20.10;;
53879;SDS011;39791;53.184;5.486;2023-01-29T06:03:43;27.92;;;20.77;;
53879;SDS011;39791;53.184;5.486;2023-01-29T06:06:09;29.48;;;21.40;;
53879;SDS011;39791;53.184;5.486;2023-01-29T06:08:34;29.00;;;22.00;;
53879;SDS011;39791;53.184;5.486;2023-01-29T06:11:01;27.63;;;20.63;;
53879;SDS011;39791;53.184;5.486;2023-01-29T06:13:26;31.65;;;23.40;;
53879;SDS011;39791;53.184;5.486;2023-01-29T06:15:52;25.88;;;20.58;;
53879;SDS011;39791;53.184;5.486;2023-01-29T06:18:17;27.67;;;21.10;;
53879;SDS011;39791;53.184;5.486;2023-01-29T06:20:43;28.38;;;21.77;;
53879;SDS011;39791;53.184;5.486;2023-01-29T06:23:08;24.65;;;19.95;;
53879;SDS011;39791;53.184;5.486;2023-01-29T06:25:34;23.38;;;18.73;;
53879;SDS011;39791;53.184;5.486;2023-01-29T06:28:00;25.08;;;18.38;;
53879;SDS011;39791;53.184;5.486;2023-01-29T06:30:25;26.40;;;18.60;;
53879;SDS011;39791;53.184;5.486;2023-01-29T06:32:54;26.83;;;18.00;;
53879;SDS011;39791;53.184;5.486;2023-01-29T06:35:22;27.27;;;17.95;;
53879;SDS011;39791;53.184;5.486;2023-01-29T06:37:48;26.08;;;19.33;;
53879;SDS011;39791;53.184;5.486;2023-01-29T06:40:14;26.85;;;19.77;;
53879;SDS011;39791;53.184;5.486;2023-01-29T06:42:40;28.40;;;18.48;;
53879;SDS011;39791;53.184;5.486;2023-01-29T06:45:05;24.23;;;16.77;;
53879;SDS011;39791;53.184;5.486;2023-01-29T06:47:31;22.08;;;16.25;;
53879;SDS011;39791;53.184;5.486;2023-01-29T06:49:57;26.23;;;16.73;;
53879;SDS011;39791;53.184;5.486;2023-01-29T06:52:22;22.42;;;17.00;;
53879;SDS011;39791;53.184;5.486;2023-01-29T06:54:52;26.20;;;18.08;;
53879;SDS011;39791;53.184;5.486;2023-01-29T06:57:18;26.40;;;19.15;;
53879;SDS011;39791;53.184;5.486;2023-01-29T06:59:44;32.88;;;23.33;;
53879;SDS011;39791;53.184;5.486;2023-01-29T07:02:10;29.60;;;22.58;;
53879;SDS011;39791;53.184;5.486;2023-01-29T07:04:35;36.08;;;24.13;;
53879;SDS011;39791;53.184;5.486;2023-01-29T07:07:01;42.40;;;29.77;;
53879;SDS011;39791;53.184;5.486;2023-01-29T07:09:27;41.13;;;28.88;;
53879;SDS011;39791;53.184;5.486;2023-01-29T07:11:53;40.20;;;29.80;;
53879;SDS011;39791;53.184;5.486;2023-01-29T07:14:19;40.78;;;30.20;;
53879;SDS011;39791;53.184;5.486;2023-01-29T07:16:44;43.90;;;32.05;;
53879;SDS011;39791;53.184;5.486;2023-01-29T07:19:10;40.60;;;30.10;;
53879;SDS011;39791;53.184;5.486;2023-01-29T07:21:35;39.78;;;29.13;;
53879;SDS011;39791;53.184;5.486;2023-01-29T07:24:01;33.63;;;26.13;;
53879;SDS011;39791;53.184;5.486;2023-01-29T07:26:27;40.58;;;28.63;;
53879;SDS011;39791;53.184;5.486;2023-01-29T07:28:52;32.08;;;24.92;;
53879;SDS011;39791;53.184;5.486;2023-01-29T07:31:18;32.65;;;23.80;;
53879;SDS011;39791;53.184;5.486;2023-01-29T07:33:44;38.85;;;26.90;;
53879;SDS011;39791;53.184;5.486;2023-01-29T07:36:10;46.25;;;29.30;;
53879;SDS011;39791;53.184;5.486;2023-01-29T07:38:36;45.45;;;28.10;;
53879;SDS011;39791;53.184;5.486;2023-01-29T07:41:02;40.55;;;28.00;;
53879;SDS011;39791;53.184;5.486;2023-01-29T07:43:27;39.38;;;27.08;;
53879;SDS011;39791;53.184;5.486;2023-01-29T07:45:54;38.55;;;27.58;;
53879;SDS011;39791;53.184;5.486;2023-01-29T07:48:19;35.47;;;25.63;;
53879;SDS011;39791;53.184;5.486;2023-01-29T07:50:52;36.28;;;25.80;;
53879;SDS011;39791;53.184;5.486;2023-01-29T07:53:19;36.10;;;25.42;;
53879;SDS011;39791;53.184;5.486;2023-01-29T07:55:45;32.92;;;24.92;;
53879;SDS011;39791;53.184;5.486;2023-01-29T07:58:10;36.10;;;25.15;;
53879;SDS011;39791;53.184;5.486;2023-01-29T08:00:36;37.17;;;25.92;;
53879;SDS011;39791;53.184;5.486;2023-01-29T08:03:03;34.42;;;25.38;;
53879;SDS011;39791;53.184;5.486;2023-01-29T08:05:30;34.63;;;26.52;;
53879;SDS011;39791;53.184;5.486;2023-01-29T08:07:56;32.03;;;25.50;;
53879;SDS011;39791;53.184;5.486;2023-01-29T08:10:22;26.88;;;20.45;;
53879;SDS011;39791;53.184;5.486;2023-01-29T08:12:58;33.17;;;22.48;;
53879;SDS011;39791;53.184;5.486;2023-01-29T08:15:25;30.15;;;20.50;;
53879;SDS011;39791;53.184;5.486;2023-01-29T08:17:51;31.33;;;22.95;;
53879;SDS011;39791;53.184;5.486;2023-01-29T08:20:17;28.20;;;20.70;;
53879;SDS011;39791;53.184;5.486;2023-01-29T08:22:43;26.38;;;19.52;;
53879;SDS011;39791;53.184;5.486;2023-01-29T08:25:09;27.38;;;19.90;;
53879;SDS011;39791;53.184;5.486;2023-01-29T08:27:35;26.95;;;18.35;;
53879;SDS011;39791;53.184;5.486;2023-01-29T08:30:00;25.23;;;18.52;;
53879;SDS011;39791;53.184;5.486;2023-01-29T08:32:26;30.73;;;19.45;;
53879;SDS011;39791;53.184;5.486;2023-01-29T08:34:51;31.25;;;19.08;;
53879;SDS011;39791;53.184;5.486;2023-01-29T08:37:17;30.20;;;20.88;;
53879;SDS011;39791;53.184;5.486;2023-01-29T08:39:43;30.05;;;19.42;;
53879;SDS011;39791;53.184;5.486;2023-01-29T08:42:08;23.50;;;17.65;;
53879;SDS011;39791;53.184;5.486;2023-01-29T08:44:34;24.33;;;17.77;;
53879;SDS011;39791;53.184;5.486;2023-01-29T08:46:59;25.20;;;18.55;;
53879;SDS011;39791;53.184;5.486;2023-01-29T08:49:25;30.00;;;17.55;;
53879;SDS011;39791;53.184;5.486;2023-01-29T08:51:50;30.90;;;19.80;;
53879;SDS011;39791;53.184;5.486;2023-01-29T08:54:17;27.88;;;18.15;;
53879;SDS011;39791;53.184;5.486;2023-01-29T08:56:43;26.75;;;18.08;;
53879;SDS011;39791;53.184;5.486;2023-01-29T08:59:09;33.83;;;19.75;;
53879;SDS011;39791;53.184;5.486;2023-01-29T09:01:35;36.90;;;22.33;;
53879;SDS011;39791;53.184;5.486;2023-01-29T09:04:01;31.42;;;21.58;;
53879;SDS011;39791;53.184;5.486;2023-01-29T09:06:26;27.55;;;18.80;;
53879;SDS011;39791;53.184;5.486;2023-01-29T09:08:52;29.10;;;21.10;;
53879;SDS011;39791;53.184;5.486;2023-01-29T09:11:17;27.38;;;19.88;;
53879;SDS011;39791;53.184;5.486;2023-01-29T09:13:43;33.17;;;21.45;;
53879;SDS011;39791;53.184;5.486;2023-01-29T09:16:08;30.27;;;20.40;;
53879;SDS011;39791;53.184;5.486;2023-01-29T09:18:34;34.47;;;21.30;;
53879;SDS011;39791;53.184;5.486;2023-01-29T09:21:00;28.73;;;18.52;;
53879;SDS011;39791;53.184;5.486;2023-01-29T09:23:26;28.50;;;19.13;;
53879;SDS011;39791;53.184;5.486;2023-01-29T09:25:53;32.42;;;18.95;;
53879;SDS011;39791;53.184;5.486;2023-01-29T09:28:18;27.77;;;18.23;;
53879;SDS011;39791;53.184;5.486;2023-01-29T09:30:44;32.08;;;14.90;;
53879;SDS011;39791;53.184;5.486;2023-01-29T09:33:10;25.20;;;15.30;;
53879;SDS011;39791;53.184;5.486;2023-01-29T09:35:36;28.98;;;16.52;;
53879;SDS011;39791;53.184;5.486;2023-01-29T09:38:04;28.38;;;15.95;;
53879;SDS011;39791;53.184;5.486;2023-01-29T09:40:30;25.63;;;14.25;;
53879;SDS011;39791;53.184;5.486;2023-01-29T09:43:14;30.70;;;15.48;;
53879;SDS011;39791;53.184;5.486;2023-01-29T09:46:04;21.92;;;12.90;;
53879;SDS011;39791;53.184;5.486;2023-01-29T09:48:31;23.65;;;12.63;;
53879;SDS011;39791;53.184;5.486;2023-01-29T09:50:59;22.20;;;14.50;;
53879;SDS011;39791;53.184;5.486;2023-01-29T09:53:30;24.45;;;13.95;;
53879;SDS011;39791;53.184;5.486;2023-01-29T09:58:31;21.15;;;12.63;;
53879;SDS011;39791;53.184;5.486;2023-01-29T10:01:17;24.63;;;13.90;;
53879;SDS011;39791;53.184;5.486;2023-01-29T10:03:59;30.08;;;15.70;;
53879;SDS011;39791;53.184;5.486;2023-01-29T10:09:35;24.17;;;14.98;;
53879;SDS011;39791;53.184;5.486;2023-01-29T10:17:51;22.02;;;12.10;;
53879;SDS011;39791;53.184;5.486;2023-01-29T10:22:59;28.67;;;13.27;;
53879;SDS011;39791;53.184;5.486;2023-01-29T10:25:28;20.20;;;12.10;;
53879;SDS011;39791;53.184;5.486;2023-01-29T10:27:57;23.42;;;13.93;;
53879;SDS011;39791;53.184;5.486;2023-01-29T10:30:34;18.33;;;12.07;;
53879;SDS011;39791;53.184;5.486;2023-01-29T10:33:05;17.67;;;10.55;;
53879;SDS011;39791;53.184;5.486;2023-01-29T10:35:38;20.67;;;10.45;;
53879;SDS011;39791;53.184;5.486;2023-01-29T10:44:12;18.70;;;12.07;;
53879;SDS011;39791;53.184;5.486;2023-01-29T10:52:50;22.60;;;12.52;;
53879;SDS011;39791;53.184;5.486;2023-01-29T10:55:35;25.52;;;14.10;;
53879;SDS011;39791;53.184;5.486;2023-01-29T10:58:28;25.02;;;12.75;;
53879;SDS011;39791;53.184;5.486;2023-01-29T11:01:13;21.50;;;14.05;;
53879;SDS011;39791;53.184;5.486;2023-01-29T11:03:38;20.27;;;11.70;;
53879;SDS011;39791;53.184;5.486;2023-01-29T11:06:08;25.40;;;12.93;;
53879;SDS011;39791;53.184;5.486;2023-01-29T11:08:39;23.10;;;11.80;;
53879;SDS011;39791;53.184;5.486;2023-01-29T11:11:42;27.25;;;13.52;;
53879;SDS011;39791;53.184;5.486;2023-01-29T11:14:13;17.98;;;10.05;;
53879;SDS011;39791;53.184;5.486;2023-01-29T11:16:46;485.73;;;37.70;;
53879;SDS011;39791;53.184;5.486;2023-01-29T11:19:12;21.17;;;10.38;;
53879;SDS011;39791;53.184;5.486;2023-01-29T11:21:49;24.95;;;10.82;;
53879;SDS011;39791;53.184;5.486;2023-01-29T11:24:25;19.60;;;10.63;;
53879;SDS011;39791;53.184;5.486;2023-01-29T11:26:53;19.85;;;9.80;;
53879;SDS011;39791;53.184;5.486;2023-01-29T11:34:56;17.70;;;9.98;;
53879;SDS011;39791;53.184;5.486;2023-01-29T11:40:01;17.63;;;10.95;;
53879;SDS011;39791;53.184;5.486;2023-01-29T11:42:47;20.55;;;11.02;;
53879;SDS011;39791;53.184;5.486;2023-01-29T11:45:26;20.48;;;11.07;;
53879;SDS011;39791;53.184;5.486;2023-01-29T11:47:56;24.67;;;11.85;;
53879;SDS011;39791;53.184;5.486;2023-01-29T11:50:26;23.08;;;11.07;;
53879;SDS011;39791;53.184;5.486;2023-01-29T11:52:59;29.55;;;13.35;;
53879;SDS011;39791;53.184;5.486;2023-01-29T11:55:26;26.58;;;12.18;;
53879;SDS011;39791;53.184;5.486;2023-01-29T12:00:39;21.20;;;10.40;;
53879;SDS011;39791;53.184;5.486;2023-01-29T12:06:00;23.33;;;11.00;;
53879;SDS011;39791;53.184;5.486;2023-01-29T12:08:55;22.10;;;9.52;;
53879;SDS011;39791;53.184;5.486;2023-01-29T12:11:27;24.02;;;10.18;;
53879;SDS011;39791;53.184;5.486;2023-01-29T12:13:59;25.65;;;10.38;;
53879;SDS011;39791;53.184;5.486;2023-01-29T12:19:17;19.55;;;9.60;;
53879;SDS011;39791;53.184;5.486;2023-01-29T12:21:59;20.63;;;8.93;;
53879;SDS011;39791;53.184;5.486;2023-01-29T12:27:24;27.02;;;9.23;;
53879;SDS011;39791;53.184;5.486;2023-01-29T12:40:42;21.08;;;7.75;;
53879;SDS011;39791;53.184;5.486;2023-01-29T12:43:14;18.75;;;7.30;;
53879;SDS011;39791;53.184;5.486;2023-01-29T12:45:42;16.98;;;7.00;;
53879;SDS011;39791;53.184;5.486;2023-01-29T12:48:12;16.88;;;6.82;;
53879;SDS011;39791;53.184;5.486;2023-01-29T12:50:40;16.25;;;6.32;;
53879;SDS011;39791;53.184;5.486;2023-01-29T12:53:06;17.10;;;6.25;;
53879;SDS011;39791;53.184;5.486;2023-01-29T12:55:44;15.13;;;6.28;;
53879;SDS011;39791;53.184;5.486;2023-01-29T12:58:19;13.93;;;5.70;;
53879;SDS011;39791;53.184;5.486;2023-01-29T13:00:53;17.17;;;5.78;;
53879;SDS011;39791;53.184;5.486;2023-01-29T13:03:23;15.10;;;5.53;;
53879;SDS011;39791;53.184;5.486;2023-01-29T13:05:58;14.73;;;5.13;;
53879;SDS011;39791;53.184;5.486;2023-01-29T13:08:31;19.40;;;5.40;;
53879;SDS011;39791;53.184;5.486;2023-01-29T13:11:17;21.40;;;6.38;;
53879;SDS011;39791;53.184;5.486;2023-01-29T13:13:49;466.75;;;30.48;;
53879;SDS011;39791;53.184;5.486;2023-01-29T13:16:19;12.05;;;4.40;;
53879;SDS011;39791;53.184;5.486;2023-01-29T13:21:17;18.83;;;4.55;;
53879;SDS011;39791;53.184;5.486;2023-01-29T13:23:46;14.80;;;4.30;;
53879;SDS011;39791;53.184;5.486;2023-01-29T13:26:18;11.05;;;3.53;;
53879;SDS011;39791;53.184;5.486;2023-01-29T13:28:45;15.65;;;4.10;;
53879;SDS011;39791;53.184;5.486;2023-01-29T13:31:31;15.73;;;4.47;;
53879;SDS011;39791;53.184;5.486;2023-01-29T13:36:58;16.20;;;3.85;;
53879;SDS011;39791;53.184;5.486;2023-01-29T13:39:29;15.45;;;4.75;;
53879;SDS011;39791;53.184;5.486;2023-01-29T13:41:56;14.68;;;5.03;;
53879;SDS011;39791;53.184;5.486;2023-01-29T13:44:27;14.70;;;4.78;;
53879;SDS011;39791;53.184;5.486;2023-01-29T13:46:58;17.17;;;5.18;;
53879;SDS011;39791;53.184;5.486;2023-01-29T13:49:36;22.23;;;6.00;;
53879;SDS011;39791;53.184;5.486;2023-01-29T13:54:58;25.45;;;6.50;;
53879;SDS011;39791;53.184;5.486;2023-01-29T13:57:46;24.27;;;6.85;;
53879;SDS011;39791;53.184;5.486;2023-01-29T14:02:46;25.88;;;8.02;;
53879;SDS011;39791;53.184;5.486;2023-01-29T14:05:41;27.83;;;6.43;;
53879;SDS011;39791;53.184;5.486;2023-01-29T14:13:39;28.15;;;6.80;;
53879;SDS011;39791;53.184;5.486;2023-01-29T14:18:48;21.60;;;6.88;;
53879;SDS011;39791;53.184;5.486;2023-01-29T14:21:22;24.52;;;6.65;;
53879;SDS011;39791;53.184;5.486;2023-01-29T14:26:44;20.85;;;6.32;;
53879;SDS011;39791;53.184;5.486;2023-01-29T14:34:25;37.78;;;8.98;;
53879;SDS011;39791;53.184;5.486;2023-01-29T14:39:42;19.25;;;8.18;;
53879;SDS011;39791;53.184;5.486;2023-01-29T14:42:35;30.00;;;8.25;;
53879;SDS011;39791;53.184;5.486;2023-01-29T14:47:57;20.27;;;8.77;;
53879;SDS011;39791;53.184;5.486;2023-01-29T14:52:52;25.35;;;9.70;;
53879;SDS011;39791;53.184;5.486;2023-01-29T14:55:37;26.40;;;8.70;;
53879;SDS011;39791;53.184;5.486;2023-01-29T14:58:15;27.25;;;9.25;;
53879;SDS011;39791;53.184;5.486;2023-01-29T15:00:44;24.98;;;8.65;;
53879;SDS011;39791;53.184;5.486;2023-01-29T15:03:57;19.70;;;8.48;;
53879;SDS011;39791;53.184;5.486;2023-01-29T15:06:08;24.85;;;8.07;;
53879;SDS011;39791;53.184;5.486;2023-01-29T15:11:36;21.40;;;8.02;;
53879;SDS011;39791;53.184;5.486;2023-01-29T15:19:30;26.58;;;9.55;;
53879;SDS011;39791;53.184;5.486;2023-01-29T15:22:18;27.73;;;8.13;;
53879;SDS011;39791;53.184;5.486;2023-01-29T15:24:46;24.58;;;8.38;;
53879;SDS011;39791;53.184;5.486;2023-01-29T15:27:26;31.77;;;7.93;;
53879;SDS011;39791;53.184;5.486;2023-01-29T15:29:55;26.27;;;7.70;;
53879;SDS011;39791;53.184;5.486;2023-01-29T15:32:31;27.27;;;8.30;;
53879;SDS011;39791;53.184;5.486;2023-01-29T15:34:59;30.25;;;8.10;;
53879;SDS011;39791;53.184;5.486;2023-01-29T15:37:35;22.85;;;7.45;;
53879;SDS011;39791;53.184;5.486;2023-01-29T15:40:02;30.92;;;8.10;;
53879;SDS011;39791;53.184;5.486;2023-01-29T15:42:41;27.70;;;8.20;;
53879;SDS011;39791;53.184;5.486;2023-01-29T15:48:06;27.40;;;8.50;;
53879;SDS011;39791;53.184;5.486;2023-01-29T15:50:39;30.33;;;7.75;;
53879;SDS011;39791;53.184;5.486;2023-01-29T15:53:06;24.13;;;7.00;;
53879;SDS011;39791;53.184;5.486;2023-01-29T15:55:38;26.52;;;7.57;;
53879;SDS011;39791;53.184;5.486;2023-01-29T15:58:04;289.63;;;25.33;;
53879;SDS011;39791;53.184;5.486;2023-01-29T16:00:31;34.88;;;9.05;;
53879;SDS011;39791;53.184;5.486;2023-01-29T16:02:57;25.80;;;8.65;;
53879;SDS011;39791;53.184;5.486;2023-01-29T16:05:28;32.80;;;7.93;;
53879;SDS011;39791;53.184;5.486;2023-01-29T16:07:57;28.77;;;7.47;;
53879;SDS011;39791;53.184;5.486;2023-01-29T16:10:28;25.13;;;7.60;;
53879;SDS011;39791;53.184;5.486;2023-01-29T16:12:55;25.60;;;7.43;;
53879;SDS011;39791;53.184;5.486;2023-01-29T16:15:31;22.90;;;7.90;;
53879;SDS011;39791;53.184;5.486;2023-01-29T16:22:58;25.95;;;8.18;;
53879;SDS011;39791;53.184;5.486;2023-01-29T16:25:25;21.85;;;7.35;;
53879;SDS011;39791;53.184;5.486;2023-01-29T16:27:53;21.08;;;6.95;;
53879;SDS011;39791;53.184;5.486;2023-01-29T16:30:19;25.30;;;8.50;;
53879;SDS011;39791;53.184;5.486;2023-01-29T16:32:50;28.38;;;7.65;;
53879;SDS011;39791;53.184;5.486;2023-01-29T16:35:15;30.20;;;8.23;;
53879;SDS011;39791;53.184;5.486;2023-01-29T16:37:41;30.98;;;8.20;;
53879;SDS011;39791;53.184;5.486;2023-01-29T16:40:24;24.15;;;8.23;;
53879;SDS011;39791;53.184;5.486;2023-01-29T16:45:40;31.55;;;8.95;;
53879;SDS011;39791;53.184;5.486;2023-01-29T16:48:25;34.20;;;9.30;;
53879;SDS011;39791;53.184;5.486;2023-01-29T16:53:55;31.20;;;9.50;;
53879;SDS011;39791;53.184;5.486;2023-01-29T16:56:37;19.23;;;8.55;;
53879;SDS011;39791;53.184;5.486;2023-01-29T16:59:03;28.13;;;9.57;;
53879;SDS011;39791;53.184;5.486;2023-01-29T17:01:30;22.83;;;8.25;;
53879;SDS011;39791;53.184;5.486;2023-01-29T17:06:26;19.35;;;6.80;;
53879;SDS011;39791;53.184;5.486;2023-01-29T17:08:55;26.52;;;7.88;;
53879;SDS011;39791;53.184;5.486;2023-01-29T17:11:22;19.13;;;8.00;;
53879;SDS011;39791;53.184;5.486;2023-01-29T17:13:55;24.55;;;7.70;;
53879;SDS011;39791;53.184;5.486;2023-01-29T17:18:50;23.17;;;8.00;;
53879;SDS011;39791;53.184;5.486;2023-01-29T17:21:16;27.70;;;7.70;;
53879;SDS011;39791;53.184;5.486;2023-01-29T17:23:42;20.77;;;7.13;;
53879;SDS011;39791;53.184;5.486;2023-01-29T17:26:08;25.83;;;8.43;;
53879;SDS011;39791;53.184;5.486;2023-01-29T17:28:37;22.13;;;8.57;;
53879;SDS011;39791;53.184;5.486;2023-01-29T17:31:03;26.33;;;9.40;;